Aeroporto :







RITROVATECI SU...

 
LOGIN :

Iscrizione | Disclaimer

   EN    FR    IT 

 









Sommario :    VFR   VFR Marginale   IFR   IFR Intensivo   IFR Molto Intensivo
Visibilità : 
Base nubi : 
>= 8 km
>= 3000ft
5 / 8 km
1000 / 3000 ft
1500m / 5 km
500 / 1000 ft
800 / 1500m
200 / 500 ft
< 800m
< 200 ft
Simboli :   Temporali  Nebbia  Neve Forte  Precipitazioni Forti  Vento > 20 kt






- Altitudine del aeroporto : 22 ft
- Codice IATA : YDP


CYDP - Nain

ULTIMO METAR :
  • 021300Z 01006KT 15SM SCT110 SCT250 09/03 A2994 RMK AC3CI1 SLP139

METARs OBSOLETI :
  • 021200Z 33012KT 15SM FEW110 SCT250 10/02 A2993 RMK AC1CI2 SLP138
  • 021100Z 31008KT 270V340 15SM FEW110 FEW250 09/02 A2993 RMK AC1CI1 TR AC SLP137

TAF TAF CYDP
Valido dal 02 a 10 ore il 02 a 22 ore UTC


020938Z 0210/0222 34005KT P6SM FEW110 FEW250
FM021200 32005KT P6SM FEW020 FEW150
BECMG 0213/0215 07010KT RMK NXT FCST BY 021400Z
FIR CZQX / America del Nord



MetMap, La meteo Aeronautica in un colpo d'occhio ! - Copyright ORBIFLY Dicembre 2007 - Disclaimer

ORBIFLY MET'MAP TEAM :

Programmazione e sviluppo : Alexandra Zaïnal
Concezione : Baudouin d'Aumeries
Aiuto per la programmazione : Marc-Olivier Méhu
Supporto tecnico e logistico : Manuel Goepfert
Aiuto per la traduzione : Arnaldo La Scala

Contatto : metmap@orbifly.com




FONTI E CREDITI :

   NOAA